createdAt,value
2023-04-25T00:00:09.810Z,7.97
2023-04-25T00:02:38.156Z,7.43
2023-04-25T00:05:07.211Z,7.10
2023-04-25T00:07:36.864Z,6.68
2023-04-25T00:10:05.960Z,7.63
2023-04-25T00:12:34.860Z,7.50
2023-04-25T00:15:03.012Z,7.03
2023-04-25T00:17:32.247Z,6.85
2023-04-25T00:20:00.377Z,8.05
2023-04-25T00:22:28.674Z,7.05
2023-04-25T00:25:01.104Z,6.60
2023-04-25T00:27:29.192Z,7.10
2023-04-25T00:29:57.270Z,6.88
2023-04-25T00:32:25.336Z,7.07
2023-04-25T00:34:53.488Z,6.40
2023-04-25T00:37:22.057Z,6.53
2023-04-25T00:39:50.311Z,6.63
2023-04-25T00:42:20.284Z,7.03
2023-04-25T00:44:49.716Z,6.78
2023-04-25T00:47:17.936Z,6.50
2023-04-25T00:49:46.058Z,7.07
2023-04-25T00:52:14.600Z,6.40
2023-04-25T00:54:42.776Z,7.07
2023-04-25T00:57:11.720Z,6.80
2023-04-25T00:59:46.670Z,6.22
2023-04-25T01:02:15.084Z,5.90
2023-04-25T01:04:44.679Z,6.78
2023-04-25T01:07:12.805Z,6.32
2023-04-25T01:09:41.114Z,5.93
2023-04-25T01:12:09.518Z,5.82
2023-04-25T01:14:38.870Z,5.47
2023-04-25T01:17:10.077Z,5.55
2023-04-25T01:19:38.307Z,5.32
2023-04-25T01:22:11.222Z,4.88
2023-04-25T01:24:40.139Z,4.60
2023-04-25T01:27:09.161Z,5.20
2023-04-25T01:29:37.643Z,5.10
2023-04-25T01:32:07.361Z,5.00
2023-04-25T01:34:35.643Z,4.93
2023-04-25T01:37:03.726Z,4.85
2023-04-25T01:39:33.228Z,4.63
2023-04-25T01:42:02.593Z,5.22
2023-04-25T01:44:30.815Z,4.45
2023-04-25T01:46:58.953Z,4.95
2023-04-25T01:49:27.062Z,4.07
2023-04-25T01:51:55.334Z,3.60
2023-04-25T01:54:23.755Z,4.13
2023-04-25T01:56:54.154Z,3.55
2023-04-25T01:59:22.865Z,3.38
2023-04-25T02:01:51.097Z,3.40
2023-04-25T02:04:19.548Z,2.97
2023-04-25T02:06:47.774Z,2.92
2023-04-25T02:09:15.866Z,3.33
2023-04-25T02:11:43.968Z,3.58
2023-04-25T02:14:13.418Z,3.60
2023-04-25T02:16:41.677Z,2.90
2023-04-25T02:19:09.797Z,3.28
2023-04-25T02:21:37.990Z,3.72
2023-04-25T02:24:06.969Z,3.20
2023-04-25T02:26:35.027Z,3.60
2023-04-25T02:29:03.097Z,2.92
2023-04-25T02:31:32.583Z,3.40
2023-04-25T02:34:00.711Z,2.88
2023-04-25T02:36:28.803Z,3.58
2023-04-25T02:38:56.834Z,3.53
2023-04-25T02:41:24.880Z,3.20
2023-04-25T02:43:53.179Z,3.13
2023-04-25T02:46:32.154Z,3.60
2023-04-25T02:49:07.875Z,3.40
2023-04-25T02:51:36.020Z,3.10
2023-04-25T02:54:04.150Z,3.10
2023-04-25T02:56:32.231Z,3.20
2023-04-25T02:59:00.315Z,3.30
2023-04-25T03:01:28.438Z,3.30
2023-04-25T03:03:56.650Z,3.88
2023-04-25T03:06:26.245Z,3.63
2023-04-25T03:08:54.348Z,3.38
2023-04-25T03:11:22.468Z,3.10
2023-04-25T03:13:50.788Z,3.60
2023-04-25T03:16:19.119Z,3.30
2023-04-25T03:18:47.227Z,3.55
2023-04-25T03:21:15.344Z,3.03
2023-04-25T03:23:44.827Z,3.60
2023-04-25T03:26:12.901Z,3.25
2023-04-25T03:28:41.150Z,4.10
2023-04-25T03:31:09.372Z,3.85
2023-04-25T03:33:37.471Z,3.13
2023-04-25T03:36:06.095Z,3.30
2023-04-25T03:38:34.267Z,3.00
2023-04-25T03:41:03.867Z,4.20
2023-04-25T03:43:31.939Z,2.92
2023-04-25T03:46:00.247Z,3.20
2023-04-25T03:48:28.802Z,3.28
2023-04-25T03:50:57.335Z,3.22
2023-04-25T03:53:25.465Z,2.92
2023-04-25T03:55:54.223Z,2.85
2023-04-25T03:58:24.127Z,3.00
2023-04-25T04:00:52.253Z,3.25
2023-04-25T04:03:21.525Z,2.92
2023-04-25T04:05:50.050Z,2.50
2023-04-25T04:08:18.117Z,2.60
2023-04-25T04:10:46.288Z,3.20
2023-04-25T04:13:14.362Z,3.35
2023-04-25T04:15:43.964Z,2.70
2023-04-25T04:18:12.217Z,2.25
2023-04-25T04:20:40.357Z,2.47
2023-04-25T04:23:08.433Z,2.78
2023-04-25T04:25:36.524Z,2.55
2023-04-25T04:28:04.901Z,3.00
2023-04-25T04:30:34.213Z,2.85
2023-04-25T04:33:04.520Z,2.63
2023-04-25T04:35:32.691Z,2.80
2023-04-25T04:38:00.862Z,2.55
2023-04-25T04:40:29.101Z,2.60
2023-04-25T04:42:58.358Z,2.88
2023-04-25T04:45:26.491Z,3.22
2023-04-25T04:47:56.315Z,4.13
2023-04-25T04:50:25.886Z,7.03
2023-04-25T04:52:55.447Z,5.35
2023-04-25T04:55:23.563Z,6.07
2023-04-25T04:57:51.892Z,5.03
2023-04-25T05:00:21.772Z,4.43
2023-04-25T05:02:50.170Z,3.20
2023-04-25T05:05:18.492Z,4.35
2023-04-25T05:07:47.955Z,3.88
2023-04-25T05:10:16.300Z,3.85
2023-04-25T05:12:44.398Z,4.65
2023-04-25T05:15:12.914Z,3.92
2023-04-25T05:17:41.153Z,3.70
2023-04-25T05:20:10.594Z,4.38
2023-04-25T05:22:38.747Z,3.63
2023-04-25T05:25:08.917Z,4.40
2023-04-25T05:27:37.010Z,3.50
2023-04-25T05:30:07.050Z,3.42
2023-04-25T05:32:35.205Z,3.75
2023-04-25T05:35:03.854Z,2.88
2023-04-25T05:37:33.717Z,3.83
2023-04-25T05:40:02.124Z,3.10
2023-04-25T05:42:31.571Z,3.40
2023-04-25T05:44:59.633Z,4.38
2023-04-25T05:47:27.800Z,3.38
2023-04-25T05:49:56.084Z,3.33
2023-04-25T05:52:24.190Z,4.07
2023-04-25T05:54:52.305Z,4.18
2023-04-25T05:57:25.022Z,4.00
2023-04-25T05:59:55.069Z,4.13
2023-04-25T06:02:23.644Z,4.30
2023-04-25T06:04:52.885Z,3.30
2023-04-25T06:07:21.249Z,3.10
2023-04-25T06:09:49.427Z,3.60
2023-04-25T06:12:17.539Z,3.20
2023-04-25T06:14:45.677Z,3.60
2023-04-25T06:17:15.151Z,3.40
2023-04-25T06:19:43.308Z,3.83
2023-04-25T06:22:11.541Z,3.40
2023-04-25T06:24:39.662Z,4.63
2023-04-25T06:27:07.744Z,4.60
2023-04-25T06:29:35.810Z,3.55
2023-04-25T06:32:03.900Z,4.10
2023-04-25T06:34:34.008Z,4.13
2023-04-25T06:37:02.059Z,4.45
2023-04-25T06:39:30.376Z,3.72
2023-04-25T06:41:58.577Z,4.05
2023-04-25T06:44:30.993Z,3.90
2023-04-25T06:46:59.158Z,4.17
2023-04-25T06:49:27.293Z,4.35
2023-04-25T06:51:56.752Z,5.07
2023-04-25T06:54:25.885Z,4.25
2023-04-25T06:56:53.966Z,3.83
2023-04-25T06:59:22.062Z,4.07
2023-04-25T07:01:50.133Z,4.18
2023-04-25T07:04:18.422Z,4.05
2023-04-25T07:06:48.494Z,4.75
2023-04-25T07:09:18.082Z,4.38
2023-04-25T07:11:46.139Z,4.45
2023-04-25T07:14:14.193Z,4.05
2023-04-25T07:16:42.887Z,3.80
2023-04-25T07:19:11.025Z,3.42
2023-04-25T07:21:39.086Z,3.83
2023-04-25T07:24:08.016Z,4.50
2023-04-25T07:26:37.445Z,3.30
2023-04-25T07:29:05.893Z,3.67
2023-04-25T07:31:34.032Z,3.70
2023-04-25T07:34:02.341Z,3.60
2023-04-25T07:36:31.916Z,4.18
2023-04-25T07:39:00.052Z,3.85
2023-04-25T07:41:28.178Z,3.63
2023-04-25T07:43:57.683Z,2.72
2023-04-25T07:46:25.958Z,2.92
2023-04-25T07:48:54.358Z,2.58
2023-04-25T07:51:23.205Z,2.90
2023-04-25T07:53:51.672Z,2.80
2023-04-25T07:56:19.785Z,3.15
2023-04-25T07:58:47.906Z,2.72
2023-04-25T08:01:17.711Z,2.67
2023-04-25T08:03:46.468Z,2.50
2023-04-25T08:06:14.971Z,2.60
2023-04-25T08:08:43.344Z,2.50
2023-04-25T08:11:11.593Z,2.45
2023-04-25T08:13:39.644Z,2.42
2023-04-25T08:16:07.910Z,2.13
2023-04-25T08:18:37.462Z,1.90
2023-04-25T08:21:05.694Z,2.15
2023-04-25T08:23:33.741Z,1.70
2023-04-25T08:26:01.871Z,1.77
2023-04-25T08:28:29.927Z,2.50
2023-04-25T08:30:58.072Z,2.10
2023-04-25T08:33:26.524Z,2.00
2023-04-25T08:35:55.993Z,2.00
2023-04-25T08:38:24.059Z,2.05
2023-04-25T08:40:52.950Z,2.38
2023-04-25T08:43:22.668Z,2.33
2023-04-25T08:45:50.738Z,2.78
2023-04-25T08:48:19.504Z,2.60
2023-04-25T08:50:52.743Z,2.65
2023-04-25T08:53:28.311Z,2.50
2023-04-25T08:55:58.577Z,2.42
2023-04-25T08:58:26.724Z,2.00
2023-04-25T09:00:54.900Z,2.13
2023-04-25T09:03:23.303Z,1.75
2023-04-25T09:05:52.207Z,1.40
2023-04-25T09:08:20.474Z,1.20
2023-04-25T09:10:49.952Z,1.20
2023-04-25T09:13:27.107Z,1.40
2023-04-25T09:15:56.285Z,1.30
2023-04-25T09:18:29.794Z,1.33
2023-04-25T09:21:02.077Z,1.33
2023-04-25T09:23:33.929Z,1.65
2023-04-25T09:26:03.366Z,1.90
2023-04-25T09:28:31.475Z,1.73
2023-04-25T09:30:59.963Z,1.60
2023-04-25T09:33:32.452Z,1.77
2023-04-25T09:36:05.860Z,1.65
2023-04-25T09:38:41.321Z,1.27
2023-04-25T09:41:11.028Z,1.27
2023-04-25T09:43:39.754Z,2.53
2023-04-25T09:46:12.157Z,13.07
2023-04-25T09:48:40.609Z,4.10
2023-04-25T09:51:09.928Z,2.72
2023-04-25T09:53:40.091Z,1.40
2023-04-25T09:56:10.909Z,1.55
2023-04-25T09:58:40.878Z,1.30
2023-04-25T10:01:10.735Z,1.30
2023-04-25T10:03:41.678Z,1.20
2023-04-25T10:06:12.061Z,1.30
2023-04-25T10:08:40.588Z,1.80
2023-04-25T10:11:11.015Z,1.50
2023-04-25T10:13:41.723Z,1.60
2023-04-25T10:16:10.126Z,1.35
2023-04-25T10:18:38.497Z,1.65
2023-04-25T10:21:08.084Z,1.80
2023-04-25T10:23:36.736Z,1.20
2023-04-25T10:26:04.921Z,1.52
2023-04-25T10:28:57.770Z,1.30
2023-04-25T10:31:26.014Z,1.67
2023-04-25T10:33:55.317Z,1.20
2023-04-25T10:36:24.918Z,1.33
2023-04-25T10:38:55.299Z,1.52
2023-04-25T10:41:24.758Z,1.30
2023-04-25T10:44:03.101Z,1.48
2023-04-25T10:46:31.922Z,1.17
2023-04-25T10:49:01.503Z,1.33
2023-04-25T10:51:40.084Z,1.27
2023-04-25T10:54:21.028Z,1.63
2023-04-25T10:56:52.572Z,1.75
2023-04-25T10:59:22.525Z,1.38
2023-04-25T11:01:54.005Z,1.80
2023-04-25T11:04:23.659Z,2.42
2023-04-25T11:07:07.149Z,1.75
2023-04-25T11:09:36.252Z,1.52
2023-04-25T11:12:06.005Z,1.60
2023-04-25T11:14:36.171Z,4.00
2023-04-25T11:17:04.393Z,3.03
2023-04-25T11:19:32.687Z,3.50
2023-04-25T11:22:02.006Z,2.10
2023-04-25T11:24:30.540Z,2.97
2023-04-25T11:27:00.211Z,4.00
2023-04-25T11:29:30.967Z,4.15
2023-04-25T11:32:04.363Z,2.65
2023-04-25T11:37:01.774Z,1.35
2023-04-25T11:39:30.470Z,1.90
2023-04-25T11:41:59.449Z,1.92
2023-04-25T11:44:30.698Z,1.50
2023-04-25T11:47:00.161Z,2.38
2023-04-25T11:49:33.146Z,1.80
2023-04-25T11:52:01.218Z,1.75
2023-04-25T11:54:29.374Z,1.70
2023-04-25T11:56:57.627Z,1.52
2023-04-25T11:59:27.520Z,1.83
2023-04-25T12:01:56.207Z,1.67
2023-04-25T12:04:27.306Z,1.35
2023-04-25T12:06:57.140Z,2.13
2023-04-25T12:09:31.383Z,1.40
2023-04-25T12:12:03.707Z,1.58
2023-04-25T12:14:33.434Z,1.70
2023-04-25T12:17:03.781Z,1.85
2023-04-25T12:19:36.597Z,1.67
2023-04-25T12:22:05.582Z,2.20
2023-04-25T12:24:39.030Z,2.38
2023-04-25T12:27:09.246Z,1.90
2023-04-25T12:29:49.493Z,3.53
2023-04-25T12:32:18.533Z,2.45
2023-04-25T12:34:48.092Z,1.92
2023-04-25T12:37:16.696Z,2.50
2023-04-25T12:39:44.806Z,2.72
2023-04-25T12:42:13.861Z,3.20
2023-04-25T12:44:42.632Z,3.65
2023-04-25T12:47:11.324Z,2.85
2023-04-25T12:49:39.465Z,2.60
2023-04-25T12:52:08.889Z,2.25
2023-04-25T12:54:37.096Z,1.75
2023-04-25T12:57:05.679Z,2.15
2023-04-25T12:59:33.761Z,2.20
2023-04-25T13:02:01.929Z,2.83
2023-04-25T13:04:30.266Z,1.77
2023-04-25T13:06:58.531Z,1.65
2023-04-25T13:09:28.002Z,1.80
2023-04-25T13:11:57.378Z,1.85
2023-04-25T13:14:27.423Z,2.00
2023-04-25T13:16:55.927Z,1.67
2023-04-25T13:19:24.127Z,2.20
2023-04-25T13:21:52.271Z,2.20
2023-04-25T13:24:20.516Z,1.60
2023-04-25T13:26:50.006Z,1.65
2023-04-25T13:29:18.053Z,1.42
2023-04-25T13:31:46.145Z,1.38
2023-04-25T13:34:14.506Z,1.75
2023-04-25T13:36:42.629Z,1.40
2023-04-25T13:39:12.139Z,1.80
2023-04-25T13:41:40.211Z,1.42
2023-04-25T13:44:09.659Z,1.75
2023-04-25T13:49:12.838Z,1.52
2023-04-25T13:51:43.276Z,1.83
2023-04-25T13:54:11.591Z,2.42
2023-04-25T13:56:39.724Z,2.20
2023-04-25T13:59:09.182Z,1.48
2023-04-25T14:01:37.757Z,1.63
2023-04-25T14:04:06.169Z,2.08
2023-04-25T14:06:34.827Z,1.40
2023-04-25T14:09:03.251Z,1.15
2023-04-25T14:11:31.338Z,1.60
2023-04-25T14:13:59.403Z,1.23
2023-04-25T14:16:29.273Z,1.40
2023-04-25T14:18:57.513Z,1.45
2023-04-25T14:21:26.169Z,1.77
2023-04-25T14:23:54.564Z,1.65
2023-04-25T14:26:22.953Z,1.38
2023-04-25T14:28:51.173Z,1.17
2023-04-25T14:31:19.359Z,1.50
2023-04-25T14:33:48.978Z,1.70
2023-04-25T14:36:17.183Z,1.20
2023-04-25T14:38:46.696Z,1.13
2023-04-25T14:41:14.763Z,1.40
2023-04-25T14:43:42.824Z,1.70
2023-04-25T14:46:11.988Z,1.50
2023-04-25T14:48:40.630Z,1.70
2023-04-25T14:51:10.414Z,1.85
2023-04-25T14:53:38.491Z,1.70
2023-04-25T14:56:08.251Z,1.70
2023-04-25T14:58:36.552Z,1.40
2023-04-25T15:01:04.797Z,1.35
2023-04-25T15:03:33.550Z,1.38
2023-04-25T15:06:02.189Z,1.20
2023-04-25T15:08:32.231Z,1.35
2023-04-25T15:11:00.375Z,1.30
2023-04-25T15:13:28.904Z,1.45
2023-04-25T15:15:56.965Z,1.85
2023-04-25T15:18:25.758Z,1.67
2023-04-25T15:20:56.254Z,1.63
2023-04-25T15:23:25.329Z,1.40
2023-04-25T15:25:55.841Z,1.50
2023-04-25T15:28:24.190Z,1.30
2023-04-25T15:30:52.794Z,1.90
2023-04-25T15:33:20.931Z,1.55
2023-04-25T15:35:49.034Z,1.33
2023-04-25T15:38:17.129Z,1.27
2023-04-25T15:40:45.309Z,1.70
2023-04-25T15:43:17.240Z,2.00
2023-04-25T15:45:45.627Z,1.65
2023-04-25T15:48:14.085Z,3.13
2023-04-25T15:50:43.676Z,7.53
2023-04-25T15:53:11.821Z,4.30
2023-04-25T15:55:39.986Z,2.47
2023-04-25T15:58:09.953Z,3.38
2023-04-25T16:00:41.113Z,3.20
2023-04-25T16:03:09.663Z,4.20
2023-04-25T16:05:38.534Z,1.80
2023-04-25T16:08:06.904Z,1.58
2023-04-25T16:10:35.020Z,2.00
2023-04-25T16:13:03.827Z,1.60
2023-04-25T16:15:34.653Z,1.20
2023-04-25T16:18:05.214Z,1.45
2023-04-25T16:20:33.823Z,1.30
2023-04-25T16:23:01.919Z,1.00
2023-04-25T16:25:30.010Z,1.13
2023-04-25T16:27:58.101Z,1.45
2023-04-25T16:30:26.347Z,2.00
2023-04-25T16:32:57.119Z,1.23
2023-04-25T16:35:30.421Z,1.20
2023-04-25T16:37:58.734Z,1.00
2023-04-25T16:40:27.195Z,1.08
2023-04-25T16:42:55.266Z,1.23
2023-04-25T16:45:24.391Z,1.17
2023-04-25T16:47:52.497Z,1.17
2023-04-25T16:50:20.924Z,1.00
2023-04-25T16:52:51.091Z,1.17
2023-04-25T16:55:19.342Z,1.10
2023-04-25T16:57:47.408Z,1.10
2023-04-25T17:00:17.071Z,1.35
2023-04-25T17:02:45.429Z,1.45
2023-04-25T17:05:13.633Z,1.30
2023-04-25T17:07:41.717Z,1.30
2023-04-25T17:10:12.172Z,1.67
2023-04-25T17:12:40.249Z,1.40
2023-04-25T17:15:10.004Z,1.40
2023-04-25T17:17:38.091Z,1.50
2023-04-25T17:20:07.555Z,1.40
2023-04-25T17:22:36.170Z,1.80
2023-04-25T17:25:04.380Z,1.60
2023-04-25T17:27:34.027Z,1.83
2023-04-25T17:30:03.746Z,1.20
2023-04-25T17:32:32.164Z,1.88
2023-04-25T17:35:00.355Z,1.25
2023-04-25T17:37:28.868Z,1.30
2023-04-25T17:39:57.363Z,1.30
2023-04-25T17:42:25.979Z,1.15
2023-04-25T17:44:55.809Z,1.30
2023-04-25T17:47:24.214Z,1.08
2023-04-25T17:49:52.596Z,1.30
2023-04-25T17:52:20.662Z,6.32
2023-04-25T17:54:49.781Z,7.03
2023-04-25T17:57:18.106Z,2.95
2023-04-25T17:59:46.389Z,2.20
2023-04-25T18:02:17.058Z,2.28
2023-04-25T18:04:45.617Z,1.40
2023-04-25T18:07:13.700Z,0.90
2023-04-25T18:09:41.779Z,0.70
2023-04-25T18:12:10.065Z,1.00
2023-04-25T18:14:38.195Z,1.27
2023-04-25T18:17:07.187Z,1.20
2023-04-25T18:19:36.624Z,2.13
2023-04-25T18:22:04.761Z,1.42
2023-04-25T18:24:33.460Z,1.02
2023-04-25T18:27:05.867Z,1.60
2023-04-25T18:29:34.289Z,1.03
2023-04-25T18:32:04.583Z,1.10
2023-04-25T18:34:33.710Z,1.05
2023-04-25T18:37:03.261Z,1.02
2023-04-25T18:39:31.324Z,1.33
2023-04-25T18:42:05.536Z,1.90
2023-04-25T18:44:39.473Z,1.75
2023-04-25T18:47:07.767Z,1.50
2023-04-25T18:49:36.186Z,1.20
2023-04-25T18:52:08.461Z,2.22
2023-04-25T18:54:37.036Z,3.50
2023-04-25T18:57:06.159Z,7.75
2023-04-25T18:59:34.370Z,6.50
2023-04-25T19:02:03.060Z,4.80
2023-04-25T19:04:31.463Z,4.05
2023-04-25T19:06:59.710Z,2.75
2023-04-25T19:09:29.234Z,2.35
2023-04-25T19:11:57.977Z,2.55
2023-04-25T19:14:26.174Z,2.50
2023-04-25T19:16:54.551Z,2.38
2023-04-25T19:19:23.017Z,1.92
2023-04-25T19:21:52.472Z,2.92
2023-04-25T19:24:20.805Z,2.20
2023-04-25T19:26:50.237Z,3.15
2023-04-25T19:29:18.313Z,1.52
2023-04-25T19:31:46.976Z,1.38
2023-04-25T19:34:15.071Z,2.15
2023-04-25T19:36:44.153Z,11.32
2023-04-25T19:39:12.370Z,12.90
2023-04-25T19:41:40.429Z,10.95
2023-04-25T19:44:10.961Z,8.27
2023-04-25T19:46:39.591Z,5.05
2023-04-25T19:49:08.300Z,2.80
2023-04-25T19:51:38.187Z,2.05
2023-04-25T19:54:06.602Z,1.30
2023-04-25T19:56:34.988Z,1.35
2023-04-25T19:59:03.222Z,1.45
2023-04-25T20:01:32.710Z,1.40
2023-04-25T20:04:01.865Z,1.80
2023-04-25T20:06:30.212Z,1.20
2023-04-25T20:08:59.220Z,1.00
2023-04-25T20:11:29.129Z,1.40
2023-04-25T20:13:57.442Z,1.20
2023-04-25T20:16:25.624Z,2.20
2023-04-25T20:18:55.500Z,1.58
2023-04-25T20:21:23.875Z,1.17
2023-04-25T20:23:52.063Z,1.50
2023-04-25T20:26:22.503Z,1.70
2023-04-25T20:28:51.245Z,1.77
2023-04-25T20:31:19.727Z,1.48
2023-04-25T20:33:48.607Z,1.17
2023-04-25T20:36:19.604Z,1.50
2023-04-25T20:38:47.999Z,2.05
2023-04-25T20:41:16.165Z,1.17
2023-04-25T20:43:44.481Z,2.05
2023-04-25T20:46:12.647Z,1.20
2023-04-25T20:48:40.721Z,1.58
2023-04-25T20:51:08.897Z,2.00
2023-04-25T20:53:38.391Z,1.50
2023-04-25T20:56:07.394Z,1.80
2023-04-25T20:58:35.473Z,1.75
2023-04-25T21:01:04.333Z,2.80
2023-04-25T21:03:32.706Z,2.75
2023-04-25T21:06:01.624Z,2.33
2023-04-25T21:08:29.773Z,3.92
2023-04-25T21:10:59.242Z,4.60
2023-04-25T21:13:29.036Z,7.07
2023-04-25T21:15:57.460Z,12.40
2023-04-25T21:18:25.887Z,6.93
2023-04-25T21:20:54.029Z,7.07
2023-04-25T21:23:22.306Z,7.55
2023-04-25T21:25:51.613Z,7.90
2023-04-25T21:28:21.969Z,5.65
2023-04-25T21:30:50.138Z,3.75
2023-04-25T21:33:18.782Z,3.08
2023-04-25T21:35:46.975Z,1.65
2023-04-25T21:38:15.666Z,1.60
2023-04-25T21:40:43.963Z,2.08
2023-04-25T21:43:12.200Z,1.20
2023-04-25T21:46:02.085Z,1.80
2023-04-25T21:48:30.090Z,2.90
2023-04-25T21:50:58.201Z,3.90
2023-04-25T21:53:26.797Z,6.50
2023-04-25T21:55:54.898Z,4.50
2023-04-25T21:58:22.989Z,6.45
2023-04-25T22:00:52.454Z,5.78
2023-04-25T22:03:20.760Z,3.20
2023-04-25T22:05:49.162Z,5.18
2023-04-25T22:08:17.445Z,4.88
2023-04-25T22:10:46.318Z,3.88
2023-04-25T22:13:15.272Z,5.22
2023-04-25T22:15:43.670Z,2.83
2023-04-25T22:18:14.295Z,2.35
2023-04-25T22:20:43.556Z,3.67
2023-04-25T22:23:12.324Z,2.08
2023-04-25T22:25:40.471Z,2.80
2023-04-25T22:28:08.657Z,3.72
2023-04-25T22:30:37.870Z,4.57
2023-04-25T22:33:06.082Z,8.18
2023-04-25T22:35:35.580Z,12.25
2023-04-25T22:38:03.660Z,9.77
2023-04-25T22:40:31.993Z,7.20
2023-04-25T22:43:00.052Z,4.05
2023-04-25T22:45:28.435Z,5.07
2023-04-25T22:47:56.580Z,6.53
2023-04-25T22:50:25.152Z,5.10
2023-04-25T22:52:55.078Z,4.70
2023-04-25T22:55:23.398Z,4.10
2023-04-25T22:57:51.447Z,4.57
2023-04-25T23:00:21.818Z,4.45
2023-04-25T23:02:50.712Z,5.95
2023-04-25T23:05:19.435Z,5.43
2023-04-25T23:07:48.445Z,2.35
2023-04-25T23:10:18.761Z,5.05
2023-04-25T23:12:46.876Z,4.18
2023-04-25T23:15:15.435Z,3.03
2023-04-25T23:17:43.652Z,2.03
2023-04-25T23:20:13.303Z,1.77
2023-04-25T23:22:42.110Z,1.75
2023-04-25T23:25:11.086Z,1.30
2023-04-25T23:27:40.507Z,1.48
2023-04-25T23:30:10.333Z,1.60
2023-04-25T23:32:38.959Z,1.60
2023-04-25T23:35:08.067Z,1.65
2023-04-25T23:37:37.162Z,2.63
2023-04-25T23:40:08.584Z,2.42
2023-04-25T23:42:36.831Z,4.07
2023-04-25T23:45:07.965Z,1.52
2023-04-25T23:47:36.694Z,1.52
2023-04-25T23:50:05.274Z,1.20
2023-04-25T23:52:33.561Z,1.30
2023-04-25T23:55:01.664Z,1.63
2023-04-25T23:57:29.764Z,1.60
2023-04-25T23:59:57.848Z,1.38
